createdAt,value
2023-02-11T00:01:34.672Z,7.27
2023-02-11T00:04:03.310Z,7.30
2023-02-11T00:06:32.877Z,7.30
2023-02-11T00:09:01.991Z,7.27
2023-02-11T00:11:30.533Z,7.29
2023-02-11T00:14:01.240Z,7.25
2023-02-11T00:16:28.510Z,7.23
2023-02-11T00:18:55.788Z,7.26
2023-02-11T00:21:25.825Z,7.23
2023-02-11T00:23:54.906Z,7.24
2023-02-11T00:26:26.028Z,7.23
2023-02-11T00:28:53.894Z,7.18
2023-02-11T00:31:23.492Z,7.21
2023-02-11T00:33:50.640Z,7.25
2023-02-11T00:36:25.152Z,7.23
2023-02-11T00:38:54.347Z,7.23
2023-02-11T00:41:22.144Z,7.24
2023-02-11T00:43:49.761Z,7.23
2023-02-11T00:46:17.045Z,7.21
2023-02-11T00:48:44.600Z,7.24
2023-02-11T00:51:12.139Z,7.21
2023-02-11T00:53:39.435Z,7.25
2023-02-11T00:56:06.861Z,7.28
2023-02-11T00:58:33.910Z,7.28
2023-02-11T01:01:00.930Z,7.27
2023-02-11T01:03:28.184Z,7.25
2023-02-11T01:05:55.921Z,7.31
2023-02-11T01:08:23.245Z,7.28
2023-02-11T01:11:03.824Z,7.29
2023-02-11T01:13:33.792Z,7.29
2023-02-11T01:16:01.150Z,7.32
2023-02-11T01:18:28.524Z,7.30
2023-02-11T01:20:55.872Z,7.33
2023-02-11T01:23:22.843Z,7.32
2023-02-11T01:25:51.080Z,7.32
2023-02-11T01:28:24.803Z,7.33
2023-02-11T01:30:52.617Z,7.34
2023-02-11T01:33:20.404Z,7.36
2023-02-11T01:35:47.725Z,7.35
2023-02-11T01:38:19.150Z,7.36
2023-02-11T01:41:08.590Z,7.35
2023-02-11T01:43:43.561Z,7.36
2023-02-11T01:46:29.029Z,7.37
2023-02-11T01:49:12.472Z,7.37
2023-02-11T01:51:46.732Z,7.40
2023-02-11T01:54:40.652Z,7.38
2023-02-11T01:57:24.807Z,7.40
2023-02-11T02:00:26.411Z,7.36
2023-02-11T02:03:17.171Z,7.39
2023-02-11T02:06:02.688Z,7.38
2023-02-11T02:09:06.058Z,7.41
2023-02-11T02:11:33.307Z,7.44
2023-02-11T02:14:00.335Z,7.41
2023-02-11T02:16:35.796Z,7.42
2023-02-11T02:19:59.649Z,7.41
2023-02-11T02:23:15.014Z,7.43
2023-02-11T02:25:56.949Z,7.42
2023-02-11T02:29:05.081Z,7.42
2023-02-11T02:31:50.451Z,7.43
2023-02-11T02:34:36.505Z,7.45
2023-02-11T02:37:32.226Z,7.43
2023-02-11T02:40:06.987Z,7.49
2023-02-11T02:42:34.370Z,7.47
2023-02-11T02:45:01.902Z,7.44
2023-02-11T02:47:28.974Z,7.46
2023-02-11T02:49:55.956Z,7.44
2023-02-11T02:53:03.895Z,7.45
2023-02-11T02:56:26.019Z,7.44
2023-02-11T02:59:11.570Z,7.46
2023-02-11T03:02:04.503Z,7.45
2023-02-11T03:04:40.077Z,7.46
2023-02-11T03:07:33.259Z,7.49
2023-02-11T03:10:19.299Z,7.47
2023-02-11T03:12:47.661Z,7.48
2023-02-11T03:15:17.595Z,7.49
2023-02-11T03:17:48.670Z,7.50
2023-02-11T03:20:20.119Z,7.47
2023-02-11T03:22:52.978Z,7.48
2023-02-11T03:25:22.710Z,7.48
2023-02-11T03:28:27.664Z,7.49
2023-02-11T03:31:27.142Z,7.49
2023-02-11T03:34:09.253Z,7.51
2023-02-11T03:36:52.108Z,7.53
2023-02-11T03:39:31.624Z,7.49
2023-02-11T03:42:02.006Z,7.52
2023-02-11T03:44:36.839Z,7.51
2023-02-11T03:47:07.866Z,7.49
2023-02-11T03:49:38.305Z,7.55
2023-02-11T03:52:08.218Z,7.56
2023-02-11T03:54:35.868Z,7.53
2023-02-11T03:57:04.086Z,7.52
2023-02-11T03:59:31.104Z,7.53
2023-02-11T04:01:59.633Z,7.56
2023-02-11T04:04:26.606Z,7.55
2023-02-11T04:06:53.764Z,7.55
2023-02-11T04:09:20.738Z,7.55
2023-02-11T04:11:47.709Z,7.55
2023-02-11T04:14:14.671Z,7.56
2023-02-11T04:16:41.734Z,7.57
2023-02-11T04:19:08.754Z,7.53
2023-02-11T04:21:35.724Z,7.53
2023-02-11T04:24:04.169Z,7.51
2023-02-11T04:26:31.229Z,7.53
2023-02-11T04:28:58.184Z,7.53
2023-02-11T04:31:25.363Z,7.54
2023-02-11T04:33:52.533Z,7.54
2023-02-11T04:36:19.516Z,7.55
2023-02-11T04:38:46.452Z,7.53
2023-02-11T04:41:13.440Z,7.52
2023-02-11T04:43:40.449Z,7.47
2023-02-11T04:46:07.508Z,7.53
2023-02-11T04:48:35.328Z,7.47
2023-02-11T04:51:02.679Z,7.49
2023-02-11T04:53:29.659Z,7.52
2023-02-11T04:56:03.096Z,7.50
2023-02-11T04:58:30.185Z,7.49
2023-02-11T05:01:05.141Z,7.51
2023-02-11T05:03:32.275Z,7.53
2023-02-11T05:05:59.302Z,7.51
2023-02-11T05:08:26.260Z,7.51
2023-02-11T05:10:53.255Z,7.52
2023-02-11T05:13:20.245Z,7.53
2023-02-11T05:15:47.213Z,7.53
2023-02-11T05:18:16.883Z,7.49
2023-02-11T05:20:44.568Z,7.49
2023-02-11T05:23:12.008Z,7.51
2023-02-11T05:25:39.489Z,7.48
2023-02-11T05:28:07.085Z,7.46
2023-02-11T05:30:34.116Z,7.49
2023-02-11T05:33:01.272Z,7.50
2023-02-11T05:35:28.527Z,7.46
2023-02-11T05:37:55.596Z,7.48
2023-02-11T05:40:22.583Z,7.51
2023-02-11T05:42:49.616Z,7.50
2023-02-11T05:45:16.635Z,7.49
2023-02-11T05:47:43.669Z,7.54
2023-02-11T05:50:10.763Z,7.50
2023-02-11T05:52:37.944Z,7.49
2023-02-11T05:55:05.562Z,7.49
2023-02-11T05:57:32.612Z,7.48
2023-02-11T05:59:59.577Z,7.51
2023-02-11T06:02:26.599Z,7.51
2023-02-11T06:04:53.673Z,7.50
2023-02-11T06:07:20.734Z,7.52
2023-02-11T06:09:47.798Z,7.52
2023-02-11T06:12:14.846Z,7.52
2023-02-11T06:14:42.138Z,7.53
2023-02-11T06:17:09.298Z,7.51
2023-02-11T06:19:36.326Z,7.52
2023-02-11T06:22:03.755Z,7.51
2023-02-11T06:24:51.350Z,7.50
2023-02-11T06:27:18.996Z,7.50
2023-02-11T06:29:46.506Z,7.51
2023-02-11T06:32:36.863Z,7.54
2023-02-11T06:35:01.411Z,7.54
2023-02-11T06:37:28.416Z,7.53
2023-02-11T06:39:55.407Z,7.54
2023-02-11T06:42:22.371Z,7.53
2023-02-11T06:44:49.362Z,7.58
2023-02-11T06:47:16.477Z,7.57
2023-02-11T06:49:43.476Z,7.55
2023-02-11T06:52:10.576Z,7.59
2023-02-11T06:54:37.981Z,7.59
2023-02-11T06:57:04.941Z,7.60
2023-02-11T06:59:31.951Z,7.63
2023-02-11T07:01:59.039Z,7.60
2023-02-11T07:04:26.092Z,7.62
2023-02-11T07:06:53.030Z,7.65
2023-02-11T07:09:20.016Z,7.68
2023-02-11T07:11:46.983Z,7.70
2023-02-11T07:14:13.940Z,7.72
2023-02-11T07:16:41.021Z,7.74
2023-02-11T07:19:08.035Z,7.72
2023-02-11T07:21:35.134Z,7.72
2023-02-11T07:24:02.476Z,7.77
2023-02-11T07:26:29.537Z,7.78
2023-02-11T07:28:56.514Z,7.75
2023-02-11T07:31:29.152Z,7.77
2023-02-11T07:33:59.992Z,7.79
2023-02-11T07:36:29.326Z,7.80
2023-02-11T07:38:56.657Z,7.82
2023-02-11T07:41:26.024Z,7.81
2023-02-11T07:43:53.265Z,7.84
2023-02-11T07:46:26.120Z,7.86
2023-02-11T07:48:54.024Z,7.87
2023-02-11T07:51:30.421Z,7.88
2023-02-11T07:54:00.325Z,7.86
2023-02-11T07:56:28.749Z,7.88
2023-02-11T07:58:59.726Z,7.90
2023-02-11T08:01:28.698Z,7.89
2023-02-11T08:03:58.823Z,7.90
2023-02-11T08:06:30.370Z,7.90
2023-02-11T08:08:57.737Z,7.91
2023-02-11T08:11:28.265Z,7.96
2023-02-11T08:13:56.587Z,7.98
2023-02-11T08:16:33.888Z,8.00
2023-02-11T08:19:04.512Z,8.00
2023-02-11T08:21:32.140Z,8.01
2023-02-11T08:24:01.070Z,8.04
2023-02-11T08:26:31.777Z,8.02
2023-02-11T08:28:59.541Z,8.06
2023-02-11T08:31:47.422Z,8.10
2023-02-11T08:34:18.360Z,8.09
2023-02-11T08:36:47.343Z,8.12
2023-02-11T08:39:20.499Z,8.10
2023-02-11T08:41:51.249Z,8.14
2023-02-11T08:44:20.458Z,8.15
2023-02-11T08:46:48.164Z,8.16
2023-02-11T08:49:16.345Z,8.17
2023-02-11T08:51:44.437Z,8.18
2023-02-11T08:54:12.116Z,8.21
2023-02-11T08:56:39.949Z,8.22
2023-02-11T08:59:09.135Z,8.21
2023-02-11T09:01:47.281Z,8.22
2023-02-11T09:04:14.789Z,8.22
2023-02-11T09:06:41.858Z,8.26
2023-02-11T09:09:13.632Z,8.24
2023-02-11T09:11:42.716Z,8.25
2023-02-11T09:14:18.389Z,8.29
2023-02-11T09:16:45.522Z,8.31
2023-02-11T09:19:12.625Z,8.30
2023-02-11T09:21:39.911Z,8.33
2023-02-11T09:24:07.398Z,8.33
2023-02-11T09:26:36.653Z,8.34
2023-02-11T09:29:05.056Z,8.36
2023-02-11T09:31:34.124Z,8.39
2023-02-11T09:34:05.535Z,8.42
2023-02-11T09:36:37.593Z,8.41
2023-02-11T09:39:09.479Z,8.44
2023-02-11T09:42:07.851Z,8.47
2023-02-11T09:44:38.936Z,8.49
2023-02-11T09:47:31.127Z,8.52
2023-02-11T09:50:07.398Z,8.52
2023-02-11T09:52:45.226Z,8.55
2023-02-11T09:55:26.187Z,8.60
2023-02-11T09:57:53.446Z,8.61
2023-02-11T10:00:35.038Z,8.62
2023-02-11T10:03:17.360Z,8.67
2023-02-11T10:06:02.931Z,8.69
2023-02-11T10:09:03.708Z,8.69
2023-02-11T10:12:23.262Z,8.69
2023-02-11T10:15:14.040Z,8.77
2023-02-11T10:18:31.586Z,8.78
2023-02-11T10:22:06.624Z,8.85
2023-02-11T10:24:35.313Z,8.88
2023-02-11T10:27:17.817Z,8.89
2023-02-11T10:29:56.976Z,8.93
2023-02-11T10:32:53.106Z,8.98
2023-02-11T10:35:23.740Z,9.06
2023-02-11T10:37:51.122Z,9.04
2023-02-11T10:40:28.163Z,9.06
2023-02-11T10:43:26.740Z,9.09
2023-02-11T10:45:56.673Z,9.05
2023-02-11T10:48:53.319Z,9.07
2023-02-11T10:51:29.439Z,9.13
2023-02-11T10:54:06.225Z,9.17
2023-02-11T10:56:39.854Z,9.18
2023-02-11T10:59:21.667Z,9.18
2023-02-11T11:02:00.595Z,9.30
2023-02-11T11:04:30.695Z,9.30
2023-02-11T11:07:19.871Z,9.32
2023-02-11T11:10:05.343Z,9.30
2023-02-11T11:12:49.141Z,9.34
2023-02-11T11:15:30.382Z,9.43
2023-02-11T11:18:22.553Z,9.39
2023-02-11T11:21:07.683Z,9.49
2023-02-11T11:23:39.825Z,9.44
2023-02-11T11:26:15.481Z,9.51
2023-02-11T11:28:46.726Z,9.52
2023-02-11T11:31:22.937Z,9.56
2023-02-11T11:33:53.630Z,9.59
2023-02-11T11:36:32.629Z,9.59
2023-02-11T11:39:11.084Z,9.63
2023-02-11T11:41:52.099Z,9.66
2023-02-11T11:44:40.120Z,9.64
2023-02-11T11:47:15.762Z,9.68
2023-02-11T11:50:29.152Z,9.69
2023-02-11T11:53:16.859Z,9.76
2023-02-11T11:56:04.584Z,9.77
2023-02-11T11:58:33.296Z,9.80
2023-02-11T12:01:40.423Z,9.79
2023-02-11T12:04:48.370Z,9.86
2023-02-11T12:07:56.432Z,9.91
2023-02-11T12:10:48.204Z,9.94
2023-02-11T12:13:37.342Z,9.96
2023-02-11T12:16:20.643Z,9.95
2023-02-11T12:19:07.754Z,9.95
2023-02-11T12:21:50.402Z,10.01
2023-02-11T12:24:27.603Z,10.02
2023-02-11T12:27:15.876Z,10.04
2023-02-11T12:30:27.065Z,10.07
2023-02-11T12:33:15.079Z,10.08
2023-02-11T12:36:11.684Z,10.10
2023-02-11T12:38:47.440Z,10.13
2023-02-11T12:41:58.710Z,10.12
2023-02-11T12:44:46.208Z,10.15
2023-02-11T12:47:36.269Z,10.25
2023-02-11T12:50:34.950Z,10.27
2023-02-11T12:53:34.991Z,10.24
2023-02-11T12:56:14.631Z,10.26
2023-02-11T12:58:45.831Z,10.27
2023-02-11T13:01:30.330Z,10.27
2023-02-11T13:04:25.840Z,10.31
2023-02-11T13:06:59.350Z,10.33
2023-02-11T13:09:55.162Z,10.37
2023-02-11T13:12:41.520Z,10.36
2023-02-11T13:15:15.410Z,10.37
2023-02-11T13:18:30.673Z,10.36
2023-02-11T13:21:16.461Z,10.45
2023-02-11T13:24:05.526Z,10.42
2023-02-11T13:26:37.681Z,10.46
2023-02-11T13:29:43.168Z,10.46
2023-02-11T13:32:13.952Z,10.51
2023-02-11T13:34:43.922Z,10.51
2023-02-11T13:37:39.721Z,10.55
2023-02-11T13:40:23.765Z,10.53
2023-02-11T13:42:56.711Z,10.53
2023-02-11T13:45:42.954Z,10.54
2023-02-11T13:48:24.847Z,10.53
2023-02-11T13:51:10.903Z,10.54
2023-02-11T13:53:55.820Z,10.57
2023-02-11T13:56:33.814Z,10.62
2023-02-11T13:59:04.313Z,10.58
2023-02-11T14:02:12.848Z,10.61
2023-02-11T14:05:22.782Z,10.54
2023-02-11T14:08:38.833Z,10.59
2023-02-11T14:11:33.775Z,10.63
2023-02-11T14:14:30.789Z,10.67
2023-02-11T14:17:06.687Z,10.70
2023-02-11T14:19:46.301Z,10.64
2023-02-11T14:22:38.830Z,10.59
2023-02-11T14:25:23.730Z,10.74
2023-02-11T14:28:13.142Z,10.70
2023-02-11T14:30:51.507Z,10.68
2023-02-11T14:33:29.281Z,10.74
2023-02-11T14:36:17.591Z,10.78
2023-02-11T14:39:05.368Z,10.77
2023-02-11T14:41:53.444Z,10.81
2023-02-11T14:44:25.580Z,10.75
2023-02-11T14:46:54.164Z,10.69
2023-02-11T14:49:25.259Z,10.78
2023-02-11T14:52:00.253Z,10.77
2023-02-11T14:54:29.124Z,10.78
2023-02-11T14:57:17.747Z,10.77
2023-02-11T15:00:04.295Z,10.69
2023-02-11T15:02:40.437Z,10.79
2023-02-11T15:05:27.623Z,10.78
2023-02-11T15:08:01.858Z,10.76
2023-02-11T15:10:44.998Z,10.77
2023-02-11T15:13:27.139Z,10.83
2023-02-11T15:16:00.111Z,10.77
2023-02-11T15:18:33.277Z,10.83
2023-02-11T15:21:00.639Z,10.80
2023-02-11T15:23:29.925Z,10.79
2023-02-11T15:25:57.087Z,10.79
2023-02-11T15:28:31.454Z,10.81
2023-02-11T15:31:05.802Z,10.84
2023-02-11T15:33:33.284Z,10.85
2023-02-11T15:36:03.195Z,10.82
2023-02-11T15:38:30.481Z,10.82
2023-02-11T15:41:01.102Z,10.88
2023-02-11T15:43:49.039Z,10.78
2023-02-11T15:46:23.600Z,10.76
2023-02-11T15:48:55.734Z,10.72
2023-02-11T15:51:38.854Z,10.71
2023-02-11T15:54:17.189Z,10.73
2023-02-11T15:56:48.799Z,10.68
2023-02-11T15:59:30.678Z,10.65
2023-02-11T16:02:07.209Z,10.63
2023-02-11T16:04:34.422Z,10.66
2023-02-11T16:07:01.611Z,10.63
2023-02-11T16:09:36.827Z,10.60
2023-02-11T16:12:23.448Z,10.64
2023-02-11T16:14:50.434Z,10.66
2023-02-11T16:17:26.824Z,10.68
2023-02-11T16:19:54.906Z,10.62
2023-02-11T16:22:30.104Z,10.60
2023-02-11T16:25:00.365Z,10.62
2023-02-11T16:27:37.743Z,10.57
2023-02-11T16:30:06.666Z,10.69
2023-02-11T16:32:33.766Z,10.72
2023-02-11T16:35:02.650Z,10.64
2023-02-11T16:37:29.756Z,10.55
2023-02-11T16:39:58.256Z,10.52
2023-02-11T16:42:25.508Z,10.47
2023-02-11T16:44:52.491Z,10.64
2023-02-11T16:47:28.454Z,10.55
2023-02-11T16:49:57.289Z,10.51
2023-02-11T16:52:25.491Z,10.68
2023-02-11T16:54:52.659Z,10.41
2023-02-11T16:57:22.627Z,10.40
2023-02-11T16:59:49.986Z,10.33
2023-02-11T17:02:27.950Z,10.29
2023-02-11T17:04:57.964Z,10.26
2023-02-11T17:07:25.280Z,10.21
2023-02-11T17:09:52.363Z,10.21
2023-02-11T17:12:20.684Z,10.21
2023-02-11T17:14:47.977Z,10.16
2023-02-11T17:17:16.303Z,10.14
2023-02-11T17:19:43.542Z,10.14
2023-02-11T17:22:11.858Z,10.13
2023-02-11T17:24:38.841Z,10.13
2023-02-11T17:27:05.798Z,10.11
2023-02-11T17:29:32.799Z,10.10
2023-02-11T17:31:59.879Z,10.07
2023-02-11T17:34:29.156Z,10.07
2023-02-11T17:36:57.966Z,10.08
2023-02-11T17:39:25.885Z,10.05
2023-02-11T17:41:52.870Z,10.04
2023-02-11T17:44:19.817Z,10.05
2023-02-11T17:46:46.939Z,10.03
2023-02-11T17:49:13.972Z,10.06
2023-02-11T17:51:41.090Z,10.03
2023-02-11T17:54:14.810Z,10.01
2023-02-11T17:56:42.837Z,9.99
2023-02-11T17:59:13.293Z,9.97
2023-02-11T18:01:42.053Z,9.96
2023-02-11T18:04:15.177Z,9.97
2023-02-11T18:06:42.256Z,9.94
2023-02-11T18:09:09.310Z,9.94
2023-02-11T18:11:39.433Z,9.93
2023-02-11T18:14:10.358Z,9.96
2023-02-11T18:16:39.450Z,9.98
2023-02-11T18:19:08.581Z,10.00
2023-02-11T18:21:35.992Z,10.00
2023-02-11T18:24:06.789Z,10.01
2023-02-11T18:26:34.555Z,10.04
2023-02-11T18:29:01.704Z,9.99
2023-02-11T18:31:28.838Z,10.00
2023-02-11T18:33:56.011Z,10.01
2023-02-11T18:36:23.339Z,9.99
2023-02-11T18:38:52.650Z,9.96
2023-02-11T18:41:20.527Z,9.91
2023-02-11T18:43:47.525Z,9.91
2023-02-11T18:46:16.462Z,9.87
2023-02-11T18:48:44.886Z,9.85
2023-02-11T18:51:15.913Z,9.88
2023-02-11T18:53:43.471Z,9.82
2023-02-11T18:56:22.927Z,9.81
2023-02-11T18:58:51.408Z,9.80
2023-02-11T19:01:24.415Z,9.77
2023-02-11T19:03:51.662Z,9.77
2023-02-11T19:06:26.060Z,9.74
2023-02-11T19:08:57.579Z,9.74
2023-02-11T19:11:46.113Z,9.70
2023-02-11T19:14:15.218Z,9.68
2023-02-11T19:16:45.956Z,9.68
2023-02-11T19:19:14.148Z,9.65
2023-02-11T19:21:46.217Z,9.62
2023-02-11T19:24:16.147Z,9.66
2023-02-11T19:26:43.505Z,9.63
2023-02-11T19:29:10.553Z,9.62
2023-02-11T19:31:37.733Z,9.61
2023-02-11T19:34:06.094Z,9.59
2023-02-11T19:36:33.401Z,9.55
2023-02-11T19:39:02.283Z,9.55
2023-02-11T19:41:30.343Z,9.56
2023-02-11T19:43:57.634Z,9.53
2023-02-11T19:46:30.266Z,9.51
2023-02-11T19:48:58.753Z,9.50
2023-02-11T19:51:25.729Z,9.50
2023-02-11T19:53:53.886Z,9.48
2023-02-11T19:56:22.389Z,9.47
2023-02-11T19:58:49.444Z,9.44
2023-02-11T20:01:20.738Z,9.44
2023-02-11T20:03:52.637Z,9.42
2023-02-11T20:06:26.709Z,9.41
2023-02-11T20:09:00.272Z,9.41
2023-02-11T20:11:29.840Z,9.37
2023-02-11T20:13:58.177Z,9.37
2023-02-11T20:16:44.522Z,9.38
2023-02-11T20:19:18.165Z,9.33
2023-02-11T20:21:47.862Z,9.36
2023-02-11T20:24:18.911Z,9.31
2023-02-11T20:26:48.421Z,9.28
2023-02-11T20:29:17.919Z,9.26
2023-02-11T20:31:45.193Z,9.27
2023-02-11T20:34:12.624Z,9.26
2023-02-11T20:36:40.625Z,9.28
2023-02-11T20:39:08.839Z,9.30
2023-02-11T20:41:40.033Z,9.25
2023-02-11T20:44:10.325Z,9.28
2023-02-11T20:46:41.237Z,9.27
2023-02-11T20:49:12.063Z,9.28
2023-02-11T20:51:39.594Z,9.29
2023-02-11T20:54:07.208Z,9.28
2023-02-11T20:56:37.030Z,9.27
2023-02-11T20:59:05.821Z,10.77
2023-02-11T21:01:40.815Z,11.76
2023-02-11T21:04:21.607Z,12.44
2023-02-11T21:06:54.843Z,12.84
2023-02-11T21:09:25.765Z,13.07
2023-02-11T21:11:54.248Z,13.21
2023-02-11T21:14:24.001Z,13.32
2023-02-11T21:16:52.470Z,13.41
2023-02-11T21:19:20.386Z,13.49
2023-02-11T21:21:47.483Z,13.54
2023-02-11T21:24:15.840Z,13.59
2023-02-11T21:26:43.057Z,13.63
2023-02-11T21:29:10.526Z,13.70
2023-02-11T21:31:38.120Z,13.76
2023-02-11T21:34:06.216Z,13.79
2023-02-11T21:36:33.739Z,13.83
2023-02-11T21:39:01.933Z,13.82
2023-02-11T21:41:29.691Z,13.84
2023-02-11T21:43:57.488Z,13.86
2023-02-11T21:46:24.615Z,13.88
2023-02-11T21:48:52.244Z,13.92
2023-02-11T21:51:23.602Z,13.93
2023-02-11T21:53:59.712Z,13.96
2023-02-11T21:56:28.353Z,13.98
2023-02-11T21:58:58.552Z,9.52
2023-02-11T22:01:29.853Z,9.21
2023-02-11T22:03:57.577Z,9.10
2023-02-11T22:06:31.096Z,9.06
2023-02-11T22:09:01.840Z,9.03
2023-02-11T22:11:28.977Z,8.95
2023-02-11T22:13:57.797Z,8.93
2023-02-11T22:16:29.980Z,8.87
2023-02-11T22:18:58.746Z,8.86
2023-02-11T22:21:28.030Z,8.87
2023-02-11T22:23:56.182Z,8.82
2023-02-11T22:26:26.541Z,8.85
2023-02-11T22:28:54.980Z,8.83
2023-02-11T22:31:32.061Z,8.83
2023-02-11T22:34:00.346Z,8.84
2023-02-11T22:36:41.651Z,8.84
2023-02-11T22:39:15.668Z,8.86
2023-02-11T22:41:44.469Z,8.85
2023-02-11T22:44:12.148Z,8.86
2023-02-11T22:46:40.133Z,8.85
2023-02-11T22:49:07.430Z,8.85
2023-02-11T22:51:34.492Z,8.83
2023-02-11T22:54:05.445Z,8.83
2023-02-11T22:56:34.734Z,8.81
2023-02-11T22:59:05.386Z,8.84
2023-02-11T23:01:32.577Z,8.81
2023-02-11T23:04:01.817Z,8.81
2023-02-11T23:06:28.884Z,8.78
2023-02-11T23:08:56.311Z,8.76
2023-02-11T23:11:29.782Z,8.73
2023-02-11T23:13:57.468Z,8.69
2023-02-11T23:16:28.342Z,8.69
2023-02-11T23:18:55.791Z,8.66
2023-02-11T23:21:27.008Z,8.66
2023-02-11T23:24:00.401Z,8.60
2023-02-11T23:26:27.898Z,8.59
2023-02-11T23:28:55.192Z,8.59
2023-02-11T23:31:34.127Z,8.56
2023-02-11T23:34:02.038Z,8.53
2023-02-11T23:36:29.666Z,8.57
2023-02-11T23:38:56.734Z,8.57
2023-02-11T23:41:23.806Z,8.52
2023-02-11T23:43:53.681Z,8.50
2023-02-11T23:46:22.173Z,8.57
2023-02-11T23:48:50.437Z,8.56
2023-02-11T23:51:18.894Z,8.50
2023-02-11T23:53:46.406Z,8.55
2023-02-11T23:56:21.418Z,8.51
2023-02-11T23:58:50.165Z,8.50
